sensor_id;sensor_type;location;lat;lon;timestamp;P1;durP1;ratioP1;P2;durP2;ratioP2
76202;SDS011;64985;46.364;17.008;2024-02-15T00:00:10;15.32;;;7.57;;
76202;SDS011;64985;46.364;17.008;2024-02-15T00:03:12;14.27;;;7.28;;
76202;SDS011;64985;46.364;17.008;2024-02-15T00:06:32;15.77;;;7.70;;
76202;SDS011;64985;46.364;17.008;2024-02-15T00:09:35;18.95;;;9.02;;
76202;SDS011;64985;46.364;17.008;2024-02-15T00:12:38;18.73;;;8.35;;
76202;SDS011;64985;46.364;17.008;2024-02-15T00:15:40;20.15;;;8.13;;
76202;SDS011;64985;46.364;17.008;2024-02-15T00:18:43;24.30;;;11.05;;
76202;SDS011;64985;46.364;17.008;2024-02-15T00:21:47;21.27;;;10.07;;
76202;SDS011;64985;46.364;17.008;2024-02-15T00:24:49;19.13;;;9.55;;
76202;SDS011;64985;46.364;17.008;2024-02-15T00:27:52;17.23;;;9.00;;
76202;SDS011;64985;46.364;17.008;2024-02-15T00:30:55;21.60;;;9.52;;
76202;SDS011;64985;46.364;17.008;2024-02-15T00:33:57;18.35;;;8.38;;
76202;SDS011;64985;46.364;17.008;2024-02-15T00:37:02;49.92;;;22.75;;
76202;SDS011;64985;46.364;17.008;2024-02-15T00:40:04;36.90;;;17.90;;
76202;SDS011;64985;46.364;17.008;2024-02-15T00:43:07;27.90;;;14.07;;
76202;SDS011;64985;46.364;17.008;2024-02-15T00:46:09;19.08;;;8.88;;
76202;SDS011;64985;46.364;17.008;2024-02-15T00:49:11;20.83;;;10.68;;
76202;SDS011;64985;46.364;17.008;2024-02-15T00:52:14;20.75;;;10.85;;
76202;SDS011;64985;46.364;17.008;2024-02-15T00:55:16;15.27;;;7.82;;
76202;SDS011;64985;46.364;17.008;2024-02-15T00:58:19;16.08;;;9.20;;
76202;SDS011;64985;46.364;17.008;2024-02-15T01:01:23;18.55;;;8.95;;
76202;SDS011;64985;46.364;17.008;2024-02-15T01:04:25;22.80;;;10.27;;
76202;SDS011;64985;46.364;17.008;2024-02-15T01:07:28;17.25;;;9.45;;
76202;SDS011;64985;46.364;17.008;2024-02-15T01:10:30;19.00;;;9.70;;
76202;SDS011;64985;46.364;17.008;2024-02-15T01:13:32;16.45;;;9.23;;
76202;SDS011;64985;46.364;17.008;2024-02-15T01:16:35;19.40;;;8.15;;
76202;SDS011;64985;46.364;17.008;2024-02-15T01:19:38;19.85;;;7.85;;
76202;SDS011;64985;46.364;17.008;2024-02-15T01:22:41;14.68;;;7.97;;
76202;SDS011;64985;46.364;17.008;2024-02-15T01:25:43;19.08;;;7.90;;
76202;SDS011;64985;46.364;17.008;2024-02-15T01:28:45;12.38;;;6.88;;
76202;SDS011;64985;46.364;17.008;2024-02-15T01:31:48;15.70;;;7.90;;
76202;SDS011;64985;46.364;17.008;2024-02-15T01:34:50;13.85;;;7.72;;
76202;SDS011;64985;46.364;17.008;2024-02-15T01:37:55;12.07;;;7.07;;
76202;SDS011;64985;46.364;17.008;2024-02-15T01:40:58;13.18;;;7.10;;
76202;SDS011;64985;46.364;17.008;2024-02-15T01:44:00;11.50;;;6.80;;
76202;SDS011;64985;46.364;17.008;2024-02-15T01:47:03;15.02;;;7.45;;
76202;SDS011;64985;46.364;17.008;2024-02-15T01:50:06;15.05;;;7.88;;
76202;SDS011;64985;46.364;17.008;2024-02-15T01:53:09;14.73;;;8.05;;
76202;SDS011;64985;46.364;17.008;2024-02-15T01:56:13;18.30;;;7.20;;
76202;SDS011;64985;46.364;17.008;2024-02-15T01:59:16;14.32;;;7.43;;
76202;SDS011;64985;46.364;17.008;2024-02-15T02:02:20;12.48;;;7.07;;
76202;SDS011;64985;46.364;17.008;2024-02-15T02:05:24;15.15;;;6.80;;
76202;SDS011;64985;46.364;17.008;2024-02-15T02:08:27;14.25;;;7.15;;
76202;SDS011;64985;46.364;17.008;2024-02-15T02:11:29;11.80;;;6.85;;
76202;SDS011;64985;46.364;17.008;2024-02-15T02:14:32;19.13;;;7.45;;
76202;SDS011;64985;46.364;17.008;2024-02-15T02:17:34;19.70;;;7.72;;
76202;SDS011;64985;46.364;17.008;2024-02-15T02:20:37;17.67;;;7.90;;
76202;SDS011;64985;46.364;17.008;2024-02-15T02:23:39;15.45;;;7.63;;
76202;SDS011;64985;46.364;17.008;2024-02-15T02:26:42;16.23;;;7.10;;
76202;SDS011;64985;46.364;17.008;2024-02-15T02:29:45;15.80;;;7.38;;
76202;SDS011;64985;46.364;17.008;2024-02-15T02:32:48;15.05;;;7.55;;
76202;SDS011;64985;46.364;17.008;2024-02-15T02:35:50;16.67;;;7.70;;
76202;SDS011;64985;46.364;17.008;2024-02-15T02:38:53;19.63;;;8.18;;
76202;SDS011;64985;46.364;17.008;2024-02-15T02:41:55;17.55;;;7.95;;
76202;SDS011;64985;46.364;17.008;2024-02-15T02:44:57;14.27;;;7.80;;
76202;SDS011;64985;46.364;17.008;2024-02-15T02:48:00;12.57;;;7.43;;
76202;SDS011;64985;46.364;17.008;2024-02-15T02:51:02;13.20;;;6.78;;
76202;SDS011;64985;46.364;17.008;2024-02-15T02:54:05;16.38;;;7.40;;
76202;SDS011;64985;46.364;17.008;2024-02-15T02:57:08;15.85;;;7.85;;
76202;SDS011;64985;46.364;17.008;2024-02-15T03:00:12;16.00;;;7.57;;
76202;SDS011;64985;46.364;17.008;2024-02-15T03:03:17;14.13;;;6.85;;
76202;SDS011;64985;46.364;17.008;2024-02-15T03:06:24;14.50;;;7.10;;
76202;SDS011;64985;46.364;17.008;2024-02-15T03:09:26;15.88;;;7.40;;
76202;SDS011;64985;46.364;17.008;2024-02-15T03:12:31;16.85;;;8.20;;
76202;SDS011;64985;46.364;17.008;2024-02-15T03:15:33;18.27;;;8.20;;
76202;SDS011;64985;46.364;17.008;2024-02-15T03:18:35;16.17;;;7.90;;
76202;SDS011;64985;46.364;17.008;2024-02-15T03:21:38;14.57;;;8.20;;
76202;SDS011;64985;46.364;17.008;2024-02-15T03:24:40;16.15;;;8.05;;
76202;SDS011;64985;46.364;17.008;2024-02-15T03:27:42;15.82;;;7.93;;
76202;SDS011;64985;46.364;17.008;2024-02-15T03:30:45;17.90;;;7.80;;
76202;SDS011;64985;46.364;17.008;2024-02-15T03:33:48;13.05;;;7.13;;
76202;SDS011;64985;46.364;17.008;2024-02-15T03:36:51;15.20;;;7.20;;
76202;SDS011;64985;46.364;17.008;2024-02-15T03:39:55;16.25;;;7.63;;
76202;SDS011;64985;46.364;17.008;2024-02-15T03:42:57;14.55;;;7.53;;
76202;SDS011;64985;46.364;17.008;2024-02-15T03:46:00;12.90;;;7.32;;
76202;SDS011;64985;46.364;17.008;2024-02-15T03:49:02;13.82;;;7.28;;
76202;SDS011;64985;46.364;17.008;2024-02-15T03:52:04;16.05;;;7.00;;
76202;SDS011;64985;46.364;17.008;2024-02-15T03:55:07;12.65;;;6.57;;
76202;SDS011;64985;46.364;17.008;2024-02-15T03:58:09;17.05;;;8.32;;
76202;SDS011;64985;46.364;17.008;2024-02-15T04:01:12;17.40;;;8.50;;
76202;SDS011;64985;46.364;17.008;2024-02-15T04:04:17;17.73;;;8.70;;
76202;SDS011;64985;46.364;17.008;2024-02-15T04:07:19;14.02;;;7.47;;
76202;SDS011;64985;46.364;17.008;2024-02-15T04:10:21;15.63;;;7.57;;
76202;SDS011;64985;46.364;17.008;2024-02-15T04:13:24;15.85;;;7.75;;
76202;SDS011;64985;46.364;17.008;2024-02-15T04:16:27;14.45;;;7.55;;
76202;SDS011;64985;46.364;17.008;2024-02-15T04:19:33;14.82;;;7.53;;
76202;SDS011;64985;46.364;17.008;2024-02-15T04:22:35;13.65;;;7.80;;
76202;SDS011;64985;46.364;17.008;2024-02-15T04:25:44;19.90;;;8.30;;
76202;SDS011;64985;46.364;17.008;2024-02-15T04:28:53;17.75;;;9.00;;
76202;SDS011;64985;46.364;17.008;2024-02-15T04:31:55;25.25;;;11.13;;
76202;SDS011;64985;46.364;17.008;2024-02-15T04:34:58;21.58;;;8.95;;
76202;SDS011;64985;46.364;17.008;2024-02-15T04:38:00;16.65;;;8.52;;
76202;SDS011;64985;46.364;17.008;2024-02-15T04:41:03;20.55;;;9.50;;
76202;SDS011;64985;46.364;17.008;2024-02-15T04:44:11;17.17;;;8.40;;
76202;SDS011;64985;46.364;17.008;2024-02-15T04:47:13;19.80;;;9.30;;
76202;SDS011;64985;46.364;17.008;2024-02-15T04:50:17;18.45;;;9.32;;
76202;SDS011;64985;46.364;17.008;2024-02-15T04:53:20;17.25;;;9.45;;
76202;SDS011;64985;46.364;17.008;2024-02-15T04:56:23;16.63;;;8.38;;
76202;SDS011;64985;46.364;17.008;2024-02-15T04:59:25;16.08;;;8.57;;
76202;SDS011;64985;46.364;17.008;2024-02-15T05:02:28;19.08;;;9.13;;
76202;SDS011;64985;46.364;17.008;2024-02-15T05:05:30;18.80;;;9.00;;
76202;SDS011;64985;46.364;17.008;2024-02-15T05:08:33;21.20;;;9.40;;
76202;SDS011;64985;46.364;17.008;2024-02-15T05:11:37;19.83;;;9.52;;
76202;SDS011;64985;46.364;17.008;2024-02-15T05:14:50;20.17;;;10.20;;
76202;SDS011;64985;46.364;17.008;2024-02-15T05:17:52;19.88;;;9.65;;
76202;SDS011;64985;46.364;17.008;2024-02-15T05:20:56;18.23;;;8.45;;
76202;SDS011;64985;46.364;17.008;2024-02-15T05:23:59;21.15;;;9.60;;
76202;SDS011;64985;46.364;17.008;2024-02-15T05:27:01;18.50;;;9.57;;
76202;SDS011;64985;46.364;17.008;2024-02-15T05:30:03;30.98;;;16.08;;
76202;SDS011;64985;46.364;17.008;2024-02-15T05:33:08;21.95;;;11.05;;
76202;SDS011;64985;46.364;17.008;2024-02-15T05:36:15;24.42;;;11.43;;
76202;SDS011;64985;46.364;17.008;2024-02-15T05:39:21;21.23;;;10.68;;
76202;SDS011;64985;46.364;17.008;2024-02-15T05:42:24;25.48;;;11.63;;
76202;SDS011;64985;46.364;17.008;2024-02-15T05:45:29;17.27;;;9.05;;
76202;SDS011;64985;46.364;17.008;2024-02-15T05:48:35;23.00;;;10.05;;
76202;SDS011;64985;46.364;17.008;2024-02-15T05:51:39;20.83;;;9.48;;
76202;SDS011;64985;46.364;17.008;2024-02-15T05:54:43;22.15;;;10.27;;
76202;SDS011;64985;46.364;17.008;2024-02-15T05:57:47;23.00;;;11.40;;
76202;SDS011;64985;46.364;17.008;2024-02-15T06:00:49;20.67;;;9.65;;
76202;SDS011;64985;46.364;17.008;2024-02-15T06:03:52;23.65;;;11.40;;
76202;SDS011;64985;46.364;17.008;2024-02-15T06:06:57;40.17;;;16.25;;
76202;SDS011;64985;46.364;17.008;2024-02-15T06:10:02;33.88;;;13.85;;
76202;SDS011;64985;46.364;17.008;2024-02-15T06:13:06;24.17;;;11.93;;
76202;SDS011;64985;46.364;17.008;2024-02-15T06:16:11;19.58;;;9.82;;
76202;SDS011;64985;46.364;17.008;2024-02-15T06:19:13;19.88;;;10.05;;
76202;SDS011;64985;46.364;17.008;2024-02-15T06:22:16;18.25;;;9.52;;
76202;SDS011;64985;46.364;17.008;2024-02-15T06:25:18;19.88;;;10.48;;
76202;SDS011;64985;46.364;17.008;2024-02-15T06:28:24;21.80;;;9.88;;
76202;SDS011;64985;46.364;17.008;2024-02-15T06:31:45;20.17;;;9.88;;
76202;SDS011;64985;46.364;17.008;2024-02-15T06:35:06;17.27;;;9.18;;
76202;SDS011;64985;46.364;17.008;2024-02-15T06:38:27;20.27;;;9.68;;
76202;SDS011;64985;46.364;17.008;2024-02-15T06:41:48;19.52;;;9.75;;
76202;SDS011;64985;46.364;17.008;2024-02-15T06:44:50;17.52;;;8.88;;
76202;SDS011;64985;46.364;17.008;2024-02-15T06:47:53;20.52;;;9.02;;
76202;SDS011;64985;46.364;17.008;2024-02-15T06:50:55;27.30;;;10.90;;
76202;SDS011;64985;46.364;17.008;2024-02-15T06:53:58;28.83;;;12.65;;
76202;SDS011;64985;46.364;17.008;2024-02-15T06:57:01;25.50;;;11.15;;
76202;SDS011;64985;46.364;17.008;2024-02-15T07:00:06;20.30;;;9.35;;
76202;SDS011;64985;46.364;17.008;2024-02-15T07:03:10;22.45;;;10.13;;
76202;SDS011;64985;46.364;17.008;2024-02-15T07:06:13;18.05;;;9.27;;
76202;SDS011;64985;46.364;17.008;2024-02-15T07:09:16;17.55;;;9.40;;
76202;SDS011;64985;46.364;17.008;2024-02-15T07:12:22;19.50;;;9.32;;
76202;SDS011;64985;46.364;17.008;2024-02-15T07:15:25;18.15;;;8.85;;
76202;SDS011;64985;46.364;17.008;2024-02-15T07:18:27;15.88;;;8.68;;
76202;SDS011;64985;46.364;17.008;2024-02-15T07:21:31;16.33;;;8.70;;
76202;SDS011;64985;46.364;17.008;2024-02-15T07:24:33;30.63;;;12.57;;
76202;SDS011;64985;46.364;17.008;2024-02-15T07:27:37;20.60;;;9.95;;
76202;SDS011;64985;46.364;17.008;2024-02-15T07:30:40;21.02;;;9.93;;
76202;SDS011;64985;46.364;17.008;2024-02-15T07:33:42;19.92;;;10.25;;
76202;SDS011;64985;46.364;17.008;2024-02-15T07:36:45;25.27;;;11.40;;
76202;SDS011;64985;46.364;17.008;2024-02-15T07:39:48;23.60;;;11.45;;
76202;SDS011;64985;46.364;17.008;2024-02-15T07:42:51;21.27;;;11.52;;
76202;SDS011;64985;46.364;17.008;2024-02-15T07:45:53;20.10;;;11.43;;
76202;SDS011;64985;46.364;17.008;2024-02-15T07:48:55;24.27;;;12.18;;
76202;SDS011;64985;46.364;17.008;2024-02-15T07:51:59;22.95;;;11.27;;
76202;SDS011;64985;46.364;17.008;2024-02-15T07:55:02;24.65;;;11.57;;
76202;SDS011;64985;46.364;17.008;2024-02-15T07:58:09;19.95;;;11.60;;
76202;SDS011;64985;46.364;17.008;2024-02-15T08:01:12;23.23;;;11.75;;
76202;SDS011;64985;46.364;17.008;2024-02-15T08:04:15;20.85;;;11.13;;
76202;SDS011;64985;46.364;17.008;2024-02-15T08:07:19;21.10;;;11.48;;
76202;SDS011;64985;46.364;17.008;2024-02-15T08:10:22;20.63;;;12.13;;
76202;SDS011;64985;46.364;17.008;2024-02-15T08:13:24;20.13;;;11.93;;
76202;SDS011;64985;46.364;17.008;2024-02-15T08:16:31;18.77;;;11.13;;
76202;SDS011;64985;46.364;17.008;2024-02-15T08:19:35;20.10;;;11.85;;
76202;SDS011;64985;46.364;17.008;2024-02-15T08:22:39;18.60;;;10.82;;
76202;SDS011;64985;46.364;17.008;2024-02-15T08:25:41;18.33;;;11.32;;
76202;SDS011;64985;46.364;17.008;2024-02-15T08:28:43;18.95;;;11.30;;
76202;SDS011;64985;46.364;17.008;2024-02-15T08:31:46;19.35;;;11.35;;
76202;SDS011;64985;46.364;17.008;2024-02-15T08:34:50;21.40;;;12.00;;
76202;SDS011;64985;46.364;17.008;2024-02-15T08:37:53;17.13;;;10.98;;
76202;SDS011;64985;46.364;17.008;2024-02-15T08:40:56;22.73;;;13.07;;
76202;SDS011;64985;46.364;17.008;2024-02-15T08:43:58;22.10;;;13.35;;
76202;SDS011;64985;46.364;17.008;2024-02-15T08:47:02;19.20;;;11.32;;
76202;SDS011;64985;46.364;17.008;2024-02-15T08:50:07;13.68;;;9.68;;
76202;SDS011;64985;46.364;17.008;2024-02-15T08:53:12;15.55;;;9.65;;
76202;SDS011;64985;46.364;17.008;2024-02-15T08:56:17;10.93;;;6.85;;
76202;SDS011;64985;46.364;17.008;2024-02-15T08:59:19;10.05;;;6.78;;
76202;SDS011;64985;46.364;17.008;2024-02-15T09:02:21;11.75;;;6.80;;
76202;SDS011;64985;46.364;17.008;2024-02-15T09:05:24;12.35;;;7.25;;
76202;SDS011;64985;46.364;17.008;2024-02-15T09:08:27;12.23;;;7.10;;
76202;SDS011;64985;46.364;17.008;2024-02-15T09:11:30;10.90;;;5.93;;
76202;SDS011;64985;46.364;17.008;2024-02-15T09:14:33;9.55;;;6.00;;
76202;SDS011;64985;46.364;17.008;2024-02-15T09:17:35;10.80;;;6.05;;
76202;SDS011;64985;46.364;17.008;2024-02-15T09:20:41;11.27;;;7.13;;
76202;SDS011;64985;46.364;17.008;2024-02-15T09:23:46;11.18;;;6.57;;
76202;SDS011;64985;46.364;17.008;2024-02-15T09:26:51;11.20;;;6.30;;
76202;SDS011;64985;46.364;17.008;2024-02-15T09:29:54;11.00;;;7.07;;
76202;SDS011;64985;46.364;17.008;2024-02-15T09:32:57;13.93;;;8.20;;
76202;SDS011;64985;46.364;17.008;2024-02-15T09:36:00;10.98;;;7.40;;
76202;SDS011;64985;46.364;17.008;2024-02-15T09:39:02;13.23;;;7.55;;
76202;SDS011;64985;46.364;17.008;2024-02-15T09:42:04;19.90;;;9.95;;
76202;SDS011;64985;46.364;17.008;2024-02-15T09:45:07;10.40;;;7.00;;
76202;SDS011;64985;46.364;17.008;2024-02-15T09:48:14;12.73;;;7.63;;
76202;SDS011;64985;46.364;17.008;2024-02-15T09:51:20;11.32;;;6.95;;
76202;SDS011;64985;46.364;17.008;2024-02-15T09:54:23;12.43;;;7.88;;
76202;SDS011;64985;46.364;17.008;2024-02-15T09:57:26;14.68;;;8.40;;
76202;SDS011;64985;46.364;17.008;2024-02-15T10:00:29;14.18;;;8.00;;
76202;SDS011;64985;46.364;17.008;2024-02-15T10:03:31;15.18;;;8.02;;
76202;SDS011;64985;46.364;17.008;2024-02-15T10:06:35;14.15;;;8.35;;
76202;SDS011;64985;46.364;17.008;2024-02-15T10:09:38;14.98;;;8.77;;
76202;SDS011;64985;46.364;17.008;2024-02-15T10:12:40;14.20;;;8.13;;
76202;SDS011;64985;46.364;17.008;2024-02-15T10:15:42;14.93;;;8.45;;
76202;SDS011;64985;46.364;17.008;2024-02-15T10:18:46;14.77;;;8.35;;
76202;SDS011;64985;46.364;17.008;2024-02-15T10:21:53;11.77;;;7.65;;
76202;SDS011;64985;46.364;17.008;2024-02-15T10:25:11;14.82;;;9.02;;
76202;SDS011;64985;46.364;17.008;2024-02-15T10:28:20;14.82;;;8.48;;
76202;SDS011;64985;46.364;17.008;2024-02-15T10:31:25;12.23;;;8.07;;
76202;SDS011;64985;46.364;17.008;2024-02-15T10:34:28;17.42;;;8.80;;
76202;SDS011;64985;46.364;17.008;2024-02-15T10:37:32;13.68;;;7.95;;
76202;SDS011;64985;46.364;17.008;2024-02-15T10:40:34;13.27;;;7.65;;
76202;SDS011;64985;46.364;17.008;2024-02-15T10:43:37;12.98;;;8.27;;
76202;SDS011;64985;46.364;17.008;2024-02-15T10:46:41;16.83;;;8.57;;
76202;SDS011;64985;46.364;17.008;2024-02-15T10:49:45;12.82;;;7.43;;
76202;SDS011;64985;46.364;17.008;2024-02-15T10:52:58;15.63;;;8.95;;
76202;SDS011;64985;46.364;17.008;2024-02-15T11:02:31;27.88;;;13.10;;
76202;SDS011;64985;46.364;17.008;2024-02-15T11:05:38;29.50;;;16.30;;
76202;SDS011;64985;46.364;17.008;2024-02-15T11:08:42;22.88;;;13.35;;
76202;SDS011;64985;46.364;17.008;2024-02-15T11:11:46;17.63;;;10.38;;
76202;SDS011;64985;46.364;17.008;2024-02-15T11:14:52;17.92;;;10.00;;
76202;SDS011;64985;46.364;17.008;2024-02-15T11:17:55;19.58;;;11.50;;
76202;SDS011;64985;46.364;17.008;2024-02-15T11:20:59;16.92;;;10.02;;
76202;SDS011;64985;46.364;17.008;2024-02-15T11:24:24;14.90;;;9.30;;
76202;SDS011;64985;46.364;17.008;2024-02-15T11:27:30;14.10;;;8.32;;
76202;SDS011;64985;46.364;17.008;2024-02-15T11:30:33;14.93;;;8.50;;
76202;SDS011;64985;46.364;17.008;2024-02-15T11:33:36;15.60;;;8.90;;
76202;SDS011;64985;46.364;17.008;2024-02-15T11:36:39;12.77;;;7.88;;
76202;SDS011;64985;46.364;17.008;2024-02-15T11:39:44;18.85;;;10.38;;
76202;SDS011;64985;46.364;17.008;2024-02-15T11:42:49;17.60;;;10.40;;
76202;SDS011;64985;46.364;17.008;2024-02-15T11:45:58;17.70;;;10.50;;
76202;SDS011;64985;46.364;17.008;2024-02-15T11:49:03;16.92;;;10.55;;
76202;SDS011;64985;46.364;17.008;2024-02-15T11:52:09;20.20;;;10.77;;
76202;SDS011;64985;46.364;17.008;2024-02-15T11:55:13;18.30;;;10.48;;
76202;SDS011;64985;46.364;17.008;2024-02-15T11:58:20;21.90;;;11.98;;
76202;SDS011;64985;46.364;17.008;2024-02-15T12:01:30;20.13;;;11.20;;
76202;SDS011;64985;46.364;17.008;2024-02-15T12:04:52;18.45;;;11.45;;
76202;SDS011;64985;46.364;17.008;2024-02-15T12:08:12;16.45;;;10.02;;
76202;SDS011;64985;46.364;17.008;2024-02-15T12:11:34;15.57;;;8.98;;
76202;SDS011;64985;46.364;17.008;2024-02-15T12:15:05;15.00;;;8.30;;
76202;SDS011;64985;46.364;17.008;2024-02-15T12:18:25;15.90;;;8.55;;
76202;SDS011;64985;46.364;17.008;2024-02-15T12:21:48;14.55;;;8.55;;
76202;SDS011;64985;46.364;17.008;2024-02-15T12:24:58;12.75;;;7.95;;
76202;SDS011;64985;46.364;17.008;2024-02-15T12:28:02;12.50;;;8.10;;
76202;SDS011;64985;46.364;17.008;2024-02-15T12:31:06;12.85;;;7.97;;
76202;SDS011;64985;46.364;17.008;2024-02-15T12:34:11;14.45;;;8.10;;
76202;SDS011;64985;46.364;17.008;2024-02-15T12:37:17;11.73;;;7.60;;
76202;SDS011;64985;46.364;17.008;2024-02-15T12:40:20;11.85;;;7.85;;
76202;SDS011;64985;46.364;17.008;2024-02-15T12:43:24;13.20;;;8.00;;
76202;SDS011;64985;46.364;17.008;2024-02-15T12:46:28;13.27;;;8.05;;
76202;SDS011;64985;46.364;17.008;2024-02-15T12:49:31;9.63;;;6.47;;
76202;SDS011;64985;46.364;17.008;2024-02-15T12:52:35;12.57;;;7.45;;
76202;SDS011;64985;46.364;17.008;2024-02-15T12:55:39;12.43;;;7.05;;
76202;SDS011;64985;46.364;17.008;2024-02-15T12:58:42;10.68;;;6.32;;
76202;SDS011;64985;46.364;17.008;2024-02-15T13:01:45;11.50;;;5.97;;
76202;SDS011;64985;46.364;17.008;2024-02-15T13:04:50;12.02;;;6.22;;
76202;SDS011;64985;46.364;17.008;2024-02-15T13:07:52;12.95;;;6.55;;
76202;SDS011;64985;46.364;17.008;2024-02-15T13:11:05;11.45;;;6.00;;
76202;SDS011;64985;46.364;17.008;2024-02-15T13:14:07;10.48;;;5.15;;
76202;SDS011;64985;46.364;17.008;2024-02-15T13:17:12;10.75;;;5.78;;
76202;SDS011;64985;46.364;17.008;2024-02-15T13:20:14;7.90;;;4.63;;
76202;SDS011;64985;46.364;17.008;2024-02-15T13:23:16;9.50;;;5.35;;
76202;SDS011;64985;46.364;17.008;2024-02-15T13:26:27;11.18;;;6.10;;
76202;SDS011;64985;46.364;17.008;2024-02-15T13:29:29;7.28;;;4.40;;
76202;SDS011;64985;46.364;17.008;2024-02-15T13:32:37;9.98;;;5.63;;
76202;SDS011;64985;46.364;17.008;2024-02-15T13:35:40;8.68;;;4.60;;
76202;SDS011;64985;46.364;17.008;2024-02-15T13:38:43;7.57;;;4.93;;
76202;SDS011;64985;46.364;17.008;2024-02-15T13:41:46;9.00;;;4.78;;
76202;SDS011;64985;46.364;17.008;2024-02-15T13:44:49;8.30;;;4.95;;
76202;SDS011;64985;46.364;17.008;2024-02-15T13:47:52;9.23;;;4.70;;
76202;SDS011;64985;46.364;17.008;2024-02-15T13:50:58;10.35;;;5.00;;
76202;SDS011;64985;46.364;17.008;2024-02-15T13:54:00;7.43;;;4.50;;
76202;SDS011;64985;46.364;17.008;2024-02-15T13:57:03;7.07;;;4.35;;
76202;SDS011;64985;46.364;17.008;2024-02-15T14:00:05;6.40;;;4.10;;
76202;SDS011;64985;46.364;17.008;2024-02-15T14:03:08;8.25;;;4.60;;
76202;SDS011;64985;46.364;17.008;2024-02-15T14:06:11;6.65;;;4.47;;
76202;SDS011;64985;46.364;17.008;2024-02-15T14:09:14;9.68;;;6.00;;
76202;SDS011;64985;46.364;17.008;2024-02-15T14:12:19;9.45;;;4.55;;
76202;SDS011;64985;46.364;17.008;2024-02-15T14:15:21;7.93;;;4.20;;
76202;SDS011;64985;46.364;17.008;2024-02-15T14:18:24;6.55;;;4.57;;
76202;SDS011;64985;46.364;17.008;2024-02-15T14:21:26;6.85;;;4.57;;
76202;SDS011;64985;46.364;17.008;2024-02-15T14:24:28;20.23;;;8.93;;
76202;SDS011;64985;46.364;17.008;2024-02-15T14:27:30;7.53;;;4.00;;
76202;SDS011;64985;46.364;17.008;2024-02-15T14:30:34;6.47;;;4.07;;
76202;SDS011;64985;46.364;17.008;2024-02-15T14:33:55;7.00;;;4.63;;
76202;SDS011;64985;46.364;17.008;2024-02-15T14:36:58;7.57;;;4.30;;
76202;SDS011;64985;46.364;17.008;2024-02-15T14:40:01;7.43;;;4.38;;
76202;SDS011;64985;46.364;17.008;2024-02-15T14:43:07;7.55;;;4.22;;
76202;SDS011;64985;46.364;17.008;2024-02-15T14:46:09;6.20;;;3.70;;
76202;SDS011;64985;46.364;17.008;2024-02-15T14:49:12;8.48;;;4.18;;
76202;SDS011;64985;46.364;17.008;2024-02-15T14:52:14;7.30;;;4.50;;
76202;SDS011;64985;46.364;17.008;2024-02-15T14:55:17;11.00;;;5.32;;
76202;SDS011;64985;46.364;17.008;2024-02-15T14:58:20;10.65;;;5.45;;
76202;SDS011;64985;46.364;17.008;2024-02-15T15:01:24;8.40;;;4.50;;
76202;SDS011;64985;46.364;17.008;2024-02-15T15:04:27;6.75;;;4.75;;
76202;SDS011;64985;46.364;17.008;2024-02-15T15:07:37;17.65;;;8.02;;
76202;SDS011;64985;46.364;17.008;2024-02-15T15:10:58;8.98;;;3.83;;
76202;SDS011;64985;46.364;17.008;2024-02-15T15:14:18;8.43;;;4.70;;
76202;SDS011;64985;46.364;17.008;2024-02-15T15:17:21;8.80;;;4.63;;
76202;SDS011;64985;46.364;17.008;2024-02-15T15:20:23;5.85;;;3.70;;
76202;SDS011;64985;46.364;17.008;2024-02-15T15:23:28;8.77;;;4.05;;
76202;SDS011;64985;46.364;17.008;2024-02-15T15:26:33;10.77;;;5.60;;
76202;SDS011;64985;46.364;17.008;2024-02-15T15:29:36;7.00;;;4.05;;
76202;SDS011;64985;46.364;17.008;2024-02-15T15:32:39;7.28;;;3.80;;
76202;SDS011;64985;46.364;17.008;2024-02-15T15:35:42;8.60;;;4.20;;
76202;SDS011;64985;46.364;17.008;2024-02-15T15:38:44;6.78;;;3.88;;
76202;SDS011;64985;46.364;17.008;2024-02-15T15:41:47;6.07;;;3.67;;
76202;SDS011;64985;46.364;17.008;2024-02-15T15:44:50;5.88;;;3.72;;
76202;SDS011;64985;46.364;17.008;2024-02-15T15:47:52;8.70;;;3.70;;
76202;SDS011;64985;46.364;17.008;2024-02-15T15:50:55;13.85;;;3.78;;
76202;SDS011;64985;46.364;17.008;2024-02-15T15:54:01;8.25;;;3.70;;
76202;SDS011;64985;46.364;17.008;2024-02-15T15:57:05;7.68;;;4.28;;
76202;SDS011;64985;46.364;17.008;2024-02-15T16:00:08;6.15;;;3.88;;
76202;SDS011;64985;46.364;17.008;2024-02-15T16:03:14;7.82;;;3.63;;
76202;SDS011;64985;46.364;17.008;2024-02-15T16:06:17;6.68;;;3.60;;
76202;SDS011;64985;46.364;17.008;2024-02-15T16:09:20;7.18;;;4.13;;
76202;SDS011;64985;46.364;17.008;2024-02-15T16:12:22;7.95;;;3.80;;
76202;SDS011;64985;46.364;17.008;2024-02-15T16:15:25;5.90;;;3.58;;
76202;SDS011;64985;46.364;17.008;2024-02-15T16:18:27;7.35;;;3.95;;
76202;SDS011;64985;46.364;17.008;2024-02-15T16:21:30;5.35;;;3.42;;
76202;SDS011;64985;46.364;17.008;2024-02-15T16:24:32;7.40;;;3.90;;
76202;SDS011;64985;46.364;17.008;2024-02-15T16:27:39;6.57;;;3.88;;
76202;SDS011;64985;46.364;17.008;2024-02-15T16:30:42;6.45;;;3.97;;
76202;SDS011;64985;46.364;17.008;2024-02-15T16:33:45;7.13;;;4.28;;
76202;SDS011;64985;46.364;17.008;2024-02-15T16:36:48;11.98;;;5.63;;
76202;SDS011;64985;46.364;17.008;2024-02-15T16:39:51;13.52;;;6.35;;
76202;SDS011;64985;46.364;17.008;2024-02-15T16:42:53;14.18;;;5.95;;
76202;SDS011;64985;46.364;17.008;2024-02-15T16:45:59;12.35;;;5.72;;
76202;SDS011;64985;46.364;17.008;2024-02-15T16:49:01;29.33;;;9.68;;
76202;SDS011;64985;46.364;17.008;2024-02-15T16:52:04;76.50;;;21.67;;
76202;SDS011;64985;46.364;17.008;2024-02-15T16:55:06;14.90;;;6.60;;
76202;SDS011;64985;46.364;17.008;2024-02-15T16:58:09;9.32;;;4.43;;
76202;SDS011;64985;46.364;17.008;2024-02-15T17:01:12;7.88;;;4.72;;
76202;SDS011;64985;46.364;17.008;2024-02-15T17:04:14;9.23;;;4.47;;
76202;SDS011;64985;46.364;17.008;2024-02-15T17:07:18;9.00;;;4.70;;
76202;SDS011;64985;46.364;17.008;2024-02-15T17:10:20;17.70;;;6.28;;
76202;SDS011;64985;46.364;17.008;2024-02-15T17:13:23;12.57;;;4.93;;
76202;SDS011;64985;46.364;17.008;2024-02-15T17:16:25;12.50;;;5.50;;
76202;SDS011;64985;46.364;17.008;2024-02-15T17:19:28;12.65;;;6.20;;
76202;SDS011;64985;46.364;17.008;2024-02-15T17:22:30;12.73;;;6.18;;
76202;SDS011;64985;46.364;17.008;2024-02-15T17:25:32;12.45;;;5.95;;
76202;SDS011;64985;46.364;17.008;2024-02-15T17:28:35;9.10;;;4.63;;
76202;SDS011;64985;46.364;17.008;2024-02-15T17:31:39;12.35;;;5.32;;
76202;SDS011;64985;46.364;17.008;2024-02-15T17:34:43;11.13;;;4.93;;
76202;SDS011;64985;46.364;17.008;2024-02-15T17:37:45;13.20;;;6.00;;
76202;SDS011;64985;46.364;17.008;2024-02-15T17:40:47;10.80;;;4.88;;
76202;SDS011;64985;46.364;17.008;2024-02-15T17:43:51;13.05;;;6.30;;
76202;SDS011;64985;46.364;17.008;2024-02-15T17:46:57;18.67;;;8.15;;
76202;SDS011;64985;46.364;17.008;2024-02-15T17:50:02;17.88;;;7.53;;
76202;SDS011;64985;46.364;17.008;2024-02-15T17:53:04;20.10;;;8.25;;
76202;SDS011;64985;46.364;17.008;2024-02-15T17:56:06;17.35;;;6.93;;
76202;SDS011;64985;46.364;17.008;2024-02-15T17:59:08;15.55;;;6.50;;
76202;SDS011;64985;46.364;17.008;2024-02-15T18:02:12;14.65;;;6.43;;